Terminal Aerodrome Forecast
Issued by NWS Twin Cities, MN

Home | Current Version | Previous Version | Graphics & Text | Print | Product List | Glossary On
Versions: 1 2 3 4 5 6 7 8 9 10 11 12 13 14 15 16 17 18 19 20 21 22 23 24 25
000
FTUS43 KMPX 241700
TAFMSP
TAF
KMSP 241720Z 2418/2524 16007KT P6SM FEW050 BKN250
     FM241900 16010KT P6SM FEW050 SCT100
     FM250100 15008KT P6SM SCT050 BKN080
     FM250700 14010KT P6SM -SHRA OVC050 PROB30 2508/2512 5SM -TSRA
      OVC040CB
     FM251300 14010KT P6SM SCT020 BKN040
     FM251800 16010KT P6SM BKN040=

USA.gov is the U.S. government's official web portal to all federal, state and local government web resources and services.